Latest Weather Observations for Williamtown

IDN60901

Issued at 4:51 am EST Tuesday 30 May 2017 (issued every 10 minutes, with the page automatically refreshed every 10 minutes)

About weather observations | Map of Sydney area stations | Latest observations for Sydney area | Other Formats
Station Details ID: 061078 Name: WILLIAMTOWN RAAF Lat: -32.79 Lon: 151.84 Height: 7.5 m
Data from the previous 72 hours. | See also: Recent months at Williamtown
Date/Time
EST
Temp
°C
App
Temp
°C
Dew
Point
°C
Rel
Hum
%
Delta-T
°C
Wind Press
QNH
hPa
Press
MSL
hPa
Rain since
9am
mm
Dir  Spd
km/h
Gust
km/h
Spd
kts
Gust
kts
30/04:30am 5.4 0.9 2.2 80 1.3 WNW 15 17 8 9 1022.6 1022.6 0.0
30/04:00am 5.9 1.0 2.2 77 1.5 NW 17 24 9 13 1022.6 1022.6 0.0
30/03:30am 5.0 1.2 2.0 81 1.2 WNW 11 15 6 8 1022.6 1022.6 0.0
30/03:00am 5.8 2.5 2.3 78 1.4 WNW 9 11 5 6 1022.6 1022.6 0.0
30/02:30am 5.5 1.4 2.0 78 1.4 WNW 13 15 7 8 1022.6 1022.6 0.0
30/02:00am 6.4 1.6 2.7 77 1.5 WNW 17 19 9 10 1022.5 1022.5 0.0
30/01:30am 6.4 2.7 2.5 76 1.6 NW 11 13 6 7 1022.5 1022.5 0.0
30/01:00am 6.8 2.7 2.5 74 1.8 NW 13 15 7 8 1022.6 1022.6 0.0
30/12:30am 6.9 2.9 2.6 74 1.8 NW 13 13 7 7 1022.8 1022.8 0.0
30/12:00am 6.9 2.5 2.8 75 1.7 NW 15 17 8 9 1022.7 1022.7 0.0
 
Date/Time
EST
Temp
°C
App
Temp
°C
Dew
Point
°C
Rel
Hum
%
Delta-T
°C
Wind Press
QNH
hPa
Press
MSL
hPa
Rain since
9am
mm
Dir  Spd
km/h
Gust
km/h
Spd
kts
Gust
kts
29/11:30pm 6.4 2.8 2.7 77 1.5 WNW 11 13 6 7 1022.7 1022.7 0.0
29/11:00pm 7.2 3.3 3.3 76 1.6 NW 13 17 7 9 1022.7 1022.7 0.0
29/10:30pm 5.8 2.7 3.6 86 0.9 WSW 9 11 5 6 1022.6 1022.6 0.0
29/10:00pm 5.3 2.2 3.6 89 0.7 WSW 9 11 5 6 1022.4 1022.4 0.0
29/09:30pm 5.2 3.0 3.5 89 0.7 WNW 4 9 2 5 1022.3 1022.3 0.0
29/09:00pm 5.9 4.6 3.9 87 0.8 CALM 0 6 0 3 1022.2 1022.2 0.0
29/08:30pm 6.5 3.5 4.2 85 1.0 WNW 9 9 5 5 1021.9 1021.9 0.0
29/08:00pm 7.5 5.5 4.6 82 1.3 NNW 4 9 2 5 1021.8 1021.8 0.0
29/07:30pm 9.3 8.0 5.9 79 1.6 NNE 2 7 1 4 1021.4 1021.4 0.0
29/07:00pm 8.7 6.8 5.1 78 1.6 NNW 4 7 2 4 1021.2 1021.1 0.0
29/06:30pm 9.9 7.6 5.5 74 2.0 NNW 7 9 4 5 1020.8 1020.7 0.0
29/06:00pm 10.4 8.5 5.0 69 2.4 NW 4 6 2 3 1020.5 1020.4 0.0
29/05:30pm 12.1 9.7 5.3 63 3.1 WNW 7 9 4 5 1020.1 1020.0 0.0
29/05:00pm 13.7 11.3 5.1 56 4.0 NW 7 11 4 6 1019.9 1019.8 0.0
29/04:30pm 16.4 13.1 2.4 39 6.3 WNW 9 11 5 6 1019.6 1019.5 0.0
29/04:00pm 17.5 14.0 1.1 33 7.2 W 9 13 5 7 1019.3 1019.2 0.0
29/03:30pm 17.8 12.9 -0.5 29 7.8 WSW 15 19 8 10 1018.9 1018.8 0.0
29/03:00pm 18.1 12.2 -0.7 28 8.0 WSW 20 26 11 14 1018.6 1018.5 0.0
29/02:30pm 18.5 12.5 -1.3 26 8.4 W 20 32 11 17 1018.2 1018.1 0.0
29/02:00pm 18.4 14.0 4.6 40 6.6 W 17 24 9 13 1017.9 1017.8 0.0
29/01:30pm 18.5 12.2 3.6 37 7.0 WNW 26 39 14 21 1017.7 1017.6 0.0
29/01:00pm 17.9 11.6 3.8 39 6.6 WNW 26 32 14 17 1017.8 1017.7 0.0
29/12:30pm 17.8 11.2 4.0 40 6.5 W 28 41 15 22 1017.6 1017.5 0.0
29/12:00pm 17.5 11.4 4.8 43 6.0 WNW 26 37 14 20 1018.0 1017.9 0.0
29/11:30am 16.6 10.8 4.6 45 5.7 WNW 24 32 13 17 1018.3 1018.2 0.0
29/11:00am 16.3 9.8 4.7 46 5.5 WNW 28 33 15 18 1018.6 1018.5 0.0
29/10:30am 15.9 9.6 5.5 50 5.0 W 28 39 15 21 1018.8 1018.7 0.0
29/10:00am 15.3 9.0 5.5 52 4.7 WNW 28 46 15 25 1018.8 1018.7 0.0
29/09:58am 15.2 8.8 5.4 52 4.6 WNW 28 46 15 25 1018.8 1018.7 0.0
29/09:30am 14.4 8.1 5.5 55 4.2 W 28 35 15 19 1018.7 1018.6 0.0
29/09:00am 13.7 6.4 5.6 58 3.8 WNW 33 41 18 22 1018.1 1018.0 0.0
29/08:30am 12.9 6.6 5.6 61 3.4 WNW 28 39 15 21 1017.9 1017.8 0.0
29/08:00am 12.1 7.0 5.9 66 2.9 WNW 22 28 12 15 1017.8 1017.7 0.0
29/07:30am 10.8 7.0 6.0 72 2.2 WNW 15 19 8 10 1017.6 1017.5 0.0
29/07:00am 9.4 5.5 5.4 76 1.8 NW 15 17 8 9 1017.4 1017.3 0.0
29/06:30am 11.1 7.0 6.0 71 2.4 NW 17 22 9 12 1016.8 1016.7 0.0
29/06:00am 10.7 7.1 6.8 77 1.8 NW 15 24 8 13 1016.4 1016.3 0.0
29/05:30am 9.8 6.3 7.2 84 1.2 NW 15 15 8 8 1016.3 1016.2 0.0
29/05:00am 10.3 6.5 7.4 82 1.4 NW 17 19 9 10 1015.9 1015.8 0.0
29/04:30am 10.8 7.4 7.5 80 1.6 WNW 15 19 8 10 1015.6 1015.5 0.0
29/04:00am 11.3 7.9 7.8 79 1.7 WNW 15 19 8 10 1015.5 1015.4 0.0
29/03:30am 12.4 8.8 8.3 76 2.0 WNW 17 22 9 12 1015.2 1015.1 0.0
29/03:00am 13.5 10.3 8.6 72 2.5 WNW 15 19 8 10 1015.0 1014.9 0.0
29/02:30am 14.6 10.7 8.8 68 2.9 WNW 19 24 10 13 1014.8 1014.7 0.0
29/02:00am 14.9 11.5 9.1 68 3.0 NW 17 20 9 11 1014.7 1014.6 0.0
29/01:30am 15.0 11.3 9.6 70 2.8 WNW 19 22 10 12 1014.4 1014.3 0.0
29/01:00am 14.1 11.8 10.3 78 2.0 WNW 13 17 7 9 1014.1 1014.0 0.0
29/12:30am 13.7 11.3 10.1 79 1.9 WNW 13 17 7 9 1013.8 1013.7 0.0
29/12:00am 12.5 10.4 9.7 83 1.4 WSW 11 13 6 7 1013.7 1013.6 0.0
 
Date/Time
EST
Temp
°C
App
Temp
°C
Dew
Point
°C
Rel
Hum
%
Delta-T
°C
Wind Press
QNH
hPa
Press
MSL
hPa
Rain since
9am
mm
Dir  Spd
km/h
Gust
km/h
Spd
kts
Gust
kts
28/11:30pm 12.9 11.8 10.8 87 1.1 N 7 9 4 5 1013.5 1013.4 0.0
28/11:00pm 14.0 12.9 10.8 81 1.7 N 7 9 4 5 1013.0 1012.9 0.0
28/10:30pm 14.5 13.0 10.7 78 2.0 NNW 9 11 5 6 1013.1 1013.0 0.0
28/10:00pm 13.9 12.1 10.7 81 1.7 NW 11 13 6 7 1013.1 1013.0 0.0
28/09:30pm 13.5 11.2 10.3 81 1.7 WNW 13 19 7 10 1012.9 1012.8 0.0
28/09:00pm 14.4 13.2 10.2 76 2.2 N 7 9 4 5 1012.5 1012.4 0.0
28/08:30pm 15.0 13.5 10.4 74 2.4 N 9 11 5 6 1012.4 1012.3 0.0
28/08:00pm 16.1 14.3 10.8 71 2.8 NNE 11 13 6 7 1012.3 1012.2 0.0
28/07:30pm 15.2 13.9 11.2 77 2.1 N 9 9 5 5 1012.1 1012.0 0.0
28/07:00pm 15.8 14.2 11.4 75 2.4 N 11 13 6 7 1011.9 1011.8 0.0
28/06:30pm 16.9 15.4 11.8 72 2.8 NNE 11 15 6 8 1011.5 1011.4 0.0
28/06:00pm 16.3 14.8 11.9 75 2.4 NNE 11 13 6 7 1011.3 1011.2 0.0
28/05:30pm 17.1 15.8 12.4 74 2.6 N 11 13 6 7 1011.4 1011.3 0.0
28/05:00pm 18.6 17.3 12.4 67 3.5 N 11 13 6 7 1011.3 1011.2 0.0
28/04:30pm 20.2 19.2 12.4 61 4.4 NNW 9 13 5 7 1011.1 1011.0 0.0
28/04:00pm 21.3 19.8 13.0 59 4.7 N 13 15 7 8 1011.0 1010.9 0.0
28/03:30pm 21.8 18.9 12.4 55 5.3 NW 19 30 10 16 1011.0 1010.9 0.0
28/03:00pm 22.5 19.1 12.4 52 5.7 WNW 22 32 12 17 1011.2 1011.1 0.0
28/02:30pm 22.3 17.5 11.7 51 5.9 NW 28 35 15 19 1011.0 1010.9 0.0
28/02:00pm 22.3 18.1 12.3 53 5.7 WNW 26 37 14 20 1011.4 1011.3 0.0
28/01:30pm 21.6 19.2 12.5 56 5.2 NW 17 30 9 16 1011.6 1011.5 0.0
28/01:00pm 19.7 18.2 13.2 66 3.7 NNW 13 19 7 10 1012.0 1011.9 0.0
28/12:30pm 20.5 18.7 13.2 63 4.2 NNW 15 19 8 10 1012.5 1012.4 0.0
28/12:00pm 20.3 17.9 12.5 61 4.4 NW 17 20 9 11 1012.8 1012.7 0.0
28/11:30am 19.8 18.4 12.1 61 4.3 NW 11 17 6 9 1013.3 1013.2 0.0
28/11:00am 18.2 17.0 11.7 66 3.6 WNW 9 13 5 7 1014.0 1013.9 0.0
28/10:30am 17.5 15.7 12.0 70 3.0 NW 13 15 7 8 1014.3 1014.2 0.0
28/10:00am 15.8 14.2 12.9 83 1.6 NW 13 17 7 9 1014.7 1014.6 0.0
28/09:30am 14.2 13.4 13.9 98 0.2 NW 11 13 6 7 1014.6 1014.5 0.0
28/09:00am 12.5 12.0 12.5 100 0.0 NW 7 11 4 6 1014.7 1014.6 0.2
28/08:52am 12.0 10.9 12.0 100 0.0 NNE 9 11 5 6 1014.7 1014.6 0.2
28/08:45am 11.5 11.2 11.5 100 0.0 NE 4 9 2 5 1014.7 1014.6 0.2
28/08:30am 10.3 9.0 10.1 99 0.1 NNW 7 9 4 5 1014.8 1014.7 0.2
28/08:27am 10.2 8.9 10.1 99 0.1 NW 7 11 4 6 1015.0 1014.9 0.2
28/08:00am 9.5 8.6 9.4 99 0.0 W 4 7 2 4 1014.8 1014.7 0.2
28/07:30am 8.5 7.4 8.4 99 0.0 N 4 7 2 4 1014.6 1014.5 0.2
28/07:19am 8.2 6.4 8.1 99 0.0 W 7 9 4 5 1014.6 1014.5 0.2
28/07:00am 6.8 5.2 6.5 98 0.1 W 4 7 2 4 1014.2 1014.1 0.2
28/06:55am 7.5 6.9 7.4 99 0.0 CALM 0 7 0 4 1014.3 1014.2 0.2
28/06:30am 8.0 7.1 7.7 98 0.1 NW 2 7 1 4 1014.3 1014.2 0.2
28/06:11am 8.2 6.4 7.9 98 0.1 WNW 7 13 4 7 1014.1 1014.0 0.2
28/06:00am 8.2 6.4 7.9 98 0.1 NW 7 9 4 5 1014.2 1014.1 0.2
28/05:57am 8.2 6.6 7.9 98 0.1 WNW 6 9 3 5 1014.1 1014.0 0.2
28/05:36am 6.9 4.4 6.6 98 0.1 WNW 9 11 5 6 1014.1 1014.0 0.2
28/05:30am 7.4 5.4 7.1 98 0.1 WNW 7 9 4 5 1014.0 1013.9 0.2
28/05:00am 8.2 7.7 7.9 98 0.1 CALM 0 0 0 0 1014.0 1013.9 0.2
28/04:41am 7.8 7.2 7.4 97 0.2 CALM 0 0 0 0 1014.1 1014.0 0.0
28/04:30am 7.7 7.1 7.3 97 0.2 CALM 0 0 0 0 1014.2 1014.1 0.0
28/04:28am 7.9 7.3 7.5 97 0.2 CALM 0 0 0 0 1014.2 1014.1 0.0
28/04:00am 8.4 7.9 8.0 97 0.2 CALM 0 0 0 0 1014.3 1014.2 0.0
28/03:30am 8.0 7.4 7.6 97 0.2 CALM 0 0 0 0 1014.5 1014.4 0.0
28/03:00am 8.4 8.0 8.1 98 0.1 CALM 0 0 0 0 1014.9 1014.8 0.0
28/02:30am 9.1 8.8 8.8 98 0.1 CALM 0 0 0 0 1015.1 1015.0 0.0
28/02:19am 9.2 8.6 8.9 98 0.1 NW 2 6 1 3 1015.3 1015.2 0.0
28/02:00am 9.2 9.0 8.9 98 0.1 CALM 0 0 0 0 1015.5 1015.4 0.0
28/01:48am 9.5 9.3 9.2 98 0.1 CALM 0 0 0 0 1015.7 1015.6 0.0
28/01:40am 9.3 9.1 9.0 98 0.1 CALM 0 7 0 4 1015.7 1015.6 0.0
28/01:30am 8.7 7.0 8.4 98 0.1 WNW 7 9 4 5 1015.8 1015.7 0.0
28/01:09am 8.8 7.3 8.5 98 0.1 WNW 6 7 3 4 1015.9 1015.8 0.0
28/01:00am 8.7 7.6 8.3 97 0.2 NW 4 9 2 5 1016.0 1015.9 0.0
28/12:30am 8.8 8.4 8.4 97 0.2 CALM 0 0 0 0 1016.2 1016.1 0.0
28/12:08am 9.5 9.3 9.0 97 0.2 CALM 0 0 0 0 1016.5 1016.4 0.0
28/12:00am 9.6 9.4 9.1 97 0.2 CALM 0 0 0 0 1016.6 1016.5 0.0
 
Date/Time
EST
Temp
°C
App
Temp
°C
Dew
Point
°C
Rel
Hum
%
Delta-T
°C
Wind Press
QNH
hPa
Press
MSL
hPa
Rain since
9am
mm
Dir  Spd
km/h
Gust
km/h
Spd
kts
Gust
kts
27/11:49pm 10.0 9.9 9.5 97 0.2 CALM 0 0 0 0 1016.7 1016.6 0.0
27/11:30pm 9.4 9.1 8.8 96 0.3 CALM 0 0 0 0 1016.9 1016.8 0.0
27/11:00pm 10.1 10.0 9.5 96 0.3 CALM 0 0 0 0 1017.3 1017.2 0.0
27/10:30pm 12.0 12.5 11.5 97 0.3 CALM 0 0 0 0 1017.6 1017.5 0.0
27/10:00pm 12.2 12.7 11.6 96 0.3 CALM 0 6 0 3 1017.8 1017.7 0.0
27/09:37pm 12.0 11.6 11.2 95 0.4 NW 4 7 2 4 1018.0 1017.9 0.0
27/09:30pm 12.1 12.5 11.3 95 0.4 CALM 0 4 0 2 1018.0 1017.9 0.0
27/09:21pm 12.2 12.3 11.4 95 0.4 NW 2 7 1 4 1018.0 1017.9 0.0
27/09:00pm 12.8 12.7 12.0 95 0.4 NNE 4 7 2 4 1018.1 1018.0 0.0
27/08:30pm 13.2 12.7 12.1 93 0.6 NE 6 7 3 4 1018.1 1018.0 0.0
27/08:00pm 14.2 13.5 13.1 93 0.6 NNE 9 9 5 5 1018.2 1018.1 0.0
27/07:30pm 15.0 15.1 13.9 93 0.6 NE 6 7 3 4 1018.3 1018.2 0.0
27/07:00pm 14.8 14.7 13.3 91 0.8 NE 6 7 3 4 1018.3 1018.2 0.0
27/06:30pm 15.5 15.3 13.7 89 1.0 ENE 7 9 4 5 1018.3 1018.2 0.0
27/06:00pm 15.9 15.4 13.7 87 1.2 ENE 9 11 5 6 1018.0 1017.9 0.0
27/05:30pm 16.7 16.8 13.8 83 1.6 NE 6 7 3 4 1018.0 1017.9 0.0
27/05:00pm 17.6 17.6 14.1 80 2.0 E 7 9 4 5 1017.8 1017.7 0.0
27/04:30pm 18.2 17.8 14.1 77 2.3 ESE 9 9 5 5 1017.8 1017.7 0.0
27/04:00pm 18.7 17.9 14.0 74 2.7 SE 11 13 6 7 1017.8 1017.7 0.0
27/03:30pm 20.3 20.5 13.0 63 4.1 N 4 7 2 4 1018.0 1017.9 0.0
27/03:00pm 20.4 20.5 12.6 61 4.4 NNW 4 7 2 4 1018.0 1017.9 0.0
27/02:30pm 20.0 19.5 12.5 62 4.2 NE 7 11 4 6 1018.1 1018.0 0.0
27/02:00pm 19.8 19.0 12.8 64 3.9 NNW 9 11 5 6 1018.3 1018.2 0.0
27/01:30pm 19.3 18.3 12.3 64 3.9 N 9 13 5 7 1018.7 1018.6 0.0
27/01:00pm 18.8 17.7 11.9 64 3.8 NNW 9 17 5 9 1019.1 1019.0 0.0
27/12:30pm 18.3 16.8 11.8 66 3.6 NW 11 15 6 8 1019.6 1019.5 0.0
27/12:00pm 18.1 16.8 11.2 64 3.7 NNW 9 13 5 7 1020.1 1020.0 0.0
27/11:30am 17.7 16.5 11.7 68 3.3 WSW 9 11 5 6 1020.7 1020.6 0.0
27/11:00am 16.8 15.2 11.7 72 2.8 NW 11 13 6 7 1021.3 1021.3 0.0
27/10:30am 15.3 13.1 10.9 75 2.3 NW 13 15 7 8 1021.8 1021.8 0.0
27/10:00am 14.3 12.0 10.5 78 2.0 NW 13 17 7 9 1022.1 1022.1 0.0
27/09:30am 13.2 10.7 10.9 86 1.2 WNW 15 17 8 9 1022.2 1022.2 0.0
27/09:00am 11.6 9.6 10.3 92 0.7 WNW 11 13 6 7 1022.2 1022.2 0.0
27/08:39am 10.5 8.1 9.9 96 0.3 WNW 13 15 7 8 1022.3 1022.3 0.0
27/08:30am 10.3 8.3 10.0 98 0.2 WNW 11 13 6 7 1022.4 1022.4 0.0
27/08:03am 9.1 7.1 8.6 97 0.2 NW 9 11 5 6 1022.3 1022.3 0.0
27/08:00am 9.1 7.1 8.6 97 0.2 NW 9 9 5 5 1022.3 1022.3 0.0
27/07:30am 8.6 6.9 8.3 98 0.1 WNW 7 9 4 5 1022.3 1022.3 0.0
27/07:00am 7.6 4.9 7.2 97 0.2 WNW 11 13 6 7 1022.1 1022.1 0.0
27/06:30am 8.2 5.6 7.8 97 0.2 NW 11 15 6 8 1021.7 1021.7 0.0
27/06:00am 9.0 6.2 8.7 98 0.1 W 13 15 7 8 1021.5 1021.5 0.0
27/05:30am 8.9 6.1 8.6 98 0.1 WSW 13 15 7 8 1021.1 1021.0 0.0
27/05:00am 8.0 6.1 7.6 97 0.2 WSW 7 9 4 5 1021.0 1020.9 0.0

Latest Capital City Observations: Canberra | Sydney | Melbourne | Brisbane | Adelaide | Perth | Hobart | Darwin

Other Formats:

Comma delimited format used in spreadsheet applications
http://www.bom.gov.au/fwo/IDN60901/IDN60901.94776.axf

JavaScript Object Notation format (JSON) in row-major order
http://www.bom.gov.au/fwo/IDN60901/IDN60901.94776.json